createdAt,value
2023-05-19T00:01:56.693Z,94.94
2023-05-19T00:04:22.974Z,95.82
2023-05-19T00:06:51.057Z,96.53
2023-05-19T00:09:17.405Z,97.40
2023-05-19T00:11:43.518Z,98.75
2023-05-19T00:14:09.968Z,99.27
2023-05-19T00:16:41.479Z,99.48
2023-05-19T00:19:10.161Z,98.83
2023-05-19T00:21:39.631Z,99.56
2023-05-19T00:24:06.377Z,99.18
2023-05-19T00:26:32.354Z,99.38
2023-05-19T00:28:58.267Z,100.00
2023-05-19T00:31:24.456Z,100.00
2023-05-19T00:33:51.296Z,100.00
2023-05-19T00:36:17.245Z,100.00
2023-05-19T00:38:43.153Z,100.00
2023-05-19T00:41:09.076Z,100.00
2023-05-19T00:43:34.969Z,100.00
2023-05-19T00:46:01.595Z,100.00
2023-05-19T00:48:27.523Z,100.00
2023-05-19T00:51:01.240Z,100.00
2023-05-19T00:53:28.570Z,100.00
2023-05-19T00:55:54.435Z,100.00
2023-05-19T00:58:20.416Z,100.00
2023-05-19T01:00:46.418Z,100.00
2023-05-19T01:03:12.688Z,100.00
2023-05-19T01:05:44.016Z,100.00
2023-05-19T01:08:10.118Z,100.00
2023-05-19T01:10:36.591Z,100.00
2023-05-19T01:13:03.909Z,100.00
2023-05-19T01:15:33.131Z,99.62
2023-05-19T01:18:13.667Z,98.06
2023-05-19T01:20:47.420Z,98.06
2023-05-19T01:23:53.587Z,99.30
2023-05-19T01:26:41.303Z,99.34
2023-05-19T01:29:42.099Z,100.00
2023-05-19T01:32:10.119Z,100.00
2023-05-19T01:34:42.312Z,100.00
2023-05-19T01:37:09.259Z,99.58
2023-05-19T01:39:35.638Z,100.00
2023-05-19T01:42:03.134Z,100.00
2023-05-19T01:44:29.125Z,100.00
2023-05-19T01:46:55.500Z,100.00
2023-05-19T01:49:21.462Z,100.00
2023-05-19T01:51:48.656Z,100.00
2023-05-19T01:54:14.618Z,100.00
2023-05-19T01:57:20.521Z,100.00
2023-05-19T02:00:15.704Z,100.00
2023-05-19T02:03:02.242Z,100.00
2023-05-19T02:05:35.048Z,100.00
2023-05-19T02:08:11.010Z,100.00
2023-05-19T02:10:40.617Z,100.00
2023-05-19T02:13:10.604Z,100.00
2023-05-19T02:15:41.545Z,100.00
2023-05-19T02:18:11.163Z,100.00
2023-05-19T02:20:38.711Z,100.00
2023-05-19T02:23:04.640Z,100.00
2023-05-19T02:25:30.952Z,100.00
2023-05-19T02:27:57.596Z,100.00
2023-05-19T02:30:23.629Z,100.00
2023-05-19T02:32:49.575Z,99.81
2023-05-19T02:35:15.715Z,99.29
2023-05-19T02:37:41.557Z,100.00
2023-05-19T02:40:08.209Z,100.00
2023-05-19T02:42:34.052Z,100.00
2023-05-19T02:45:00.148Z,100.00
2023-05-19T02:47:25.987Z,100.00
2023-05-19T02:49:51.925Z,99.97
2023-05-19T02:52:17.804Z,99.97
2023-05-19T02:54:43.870Z,100.00
2023-05-19T02:57:10.484Z,100.00
2023-05-19T02:59:36.696Z,100.00
2023-05-19T03:02:02.987Z,100.00
2023-05-19T03:04:29.452Z,100.00
2023-05-19T03:06:55.706Z,100.00
2023-05-19T03:09:21.605Z,100.00
2023-05-19T03:11:47.469Z,100.00
2023-05-19T03:14:13.359Z,100.00
2023-05-19T03:16:43.100Z,100.00
2023-05-19T03:19:09.415Z,100.00
2023-05-19T03:21:36.026Z,100.00
2023-05-19T03:24:02.637Z,100.00
2023-05-19T03:26:31.843Z,100.00
2023-05-19T03:28:57.690Z,100.00
2023-05-19T03:31:23.813Z,100.00
2023-05-19T03:33:49.784Z,100.00
2023-05-19T03:36:16.808Z,100.00
2023-05-19T03:38:42.675Z,100.00
2023-05-19T03:41:08.532Z,100.00
2023-05-19T03:43:34.416Z,100.00
2023-05-19T03:46:01.482Z,100.00
2023-05-19T03:48:27.369Z,100.00
2023-05-19T03:50:53.661Z,100.00
2023-05-19T03:53:19.874Z,100.00
2023-05-19T03:55:46.893Z,100.00
2023-05-19T03:58:13.857Z,100.00
2023-05-19T04:00:40.259Z,100.00
2023-05-19T04:03:06.258Z,100.00
2023-05-19T04:05:34.293Z,100.00
2023-05-19T04:08:00.175Z,100.00
2023-05-19T04:10:26.119Z,100.00
2023-05-19T04:12:52.009Z,100.00
2023-05-19T04:15:17.876Z,100.00
2023-05-19T04:17:43.859Z,100.00
2023-05-19T04:20:10.458Z,100.00
2023-05-19T04:22:36.329Z,100.00
2023-05-19T04:25:03.995Z,100.00
2023-05-19T04:27:31.250Z,100.00
2023-05-19T04:29:57.484Z,100.00
2023-05-19T04:32:23.584Z,100.00
2023-05-19T04:34:49.539Z,100.00
2023-05-19T04:37:19.569Z,100.00
2023-05-19T04:39:45.792Z,100.00
2023-05-19T04:42:12.650Z,100.00
2023-05-19T04:44:39.445Z,100.00
2023-05-19T04:47:07.977Z,100.00
2023-05-19T04:49:38.270Z,100.00
2023-05-19T04:52:10.172Z,100.00
2023-05-19T04:54:37.016Z,100.00
2023-05-19T04:57:03.465Z,98.70
2023-05-19T04:59:29.393Z,99.35
2023-05-19T05:01:55.692Z,99.95
2023-05-19T05:04:23.386Z,100.00
2023-05-19T05:06:49.742Z,99.63
2023-05-19T05:09:17.116Z,99.71
2023-05-19T05:11:43.736Z,97.12
2023-05-19T05:14:10.120Z,97.61
2023-05-19T05:16:36.516Z,97.83
2023-05-19T05:19:02.771Z,98.78
2023-05-19T05:21:29.055Z,100.00
2023-05-19T05:23:55.262Z,98.82
2023-05-19T05:26:24.304Z,100.00
2023-05-19T05:28:50.486Z,97.58
2023-05-19T05:31:16.366Z,96.91
2023-05-19T05:33:42.831Z,97.44
2023-05-19T05:36:08.956Z,96.72
2023-05-19T05:38:35.480Z,96.89
2023-05-19T05:41:02.681Z,97.39
2023-05-19T05:43:29.244Z,95.62
2023-05-19T05:45:56.281Z,95.38
2023-05-19T05:48:22.634Z,95.50
2023-05-19T05:50:49.524Z,95.85
2023-05-19T05:53:19.766Z,94.52
2023-05-19T05:55:47.126Z,95.83
2023-05-19T05:58:14.859Z,93.32
2023-05-19T06:00:42.838Z,95.44
2023-05-19T06:03:10.406Z,94.38
2023-05-19T06:05:37.205Z,92.55
2023-05-19T06:08:03.603Z,90.70
2023-05-19T06:10:29.570Z,90.12
2023-05-19T06:12:55.822Z,91.61
2023-05-19T06:15:21.923Z,91.85
2023-05-19T06:17:47.840Z,92.55
2023-05-19T06:20:13.970Z,91.14
2023-05-19T06:22:39.859Z,93.29
2023-05-19T06:25:08.287Z,92.44
2023-05-19T06:27:34.986Z,93.91
2023-05-19T06:30:02.472Z,93.68
2023-05-19T06:32:29.152Z,94.65
2023-05-19T06:34:55.294Z,95.39
2023-05-19T06:37:22.278Z,95.19
2023-05-19T06:39:52.889Z,92.22
2023-05-19T06:42:23.361Z,90.93
2023-05-19T06:44:49.823Z,91.63
2023-05-19T06:47:20.855Z,89.53
2023-05-19T06:49:49.994Z,87.50
2023-05-19T06:52:16.434Z,88.21
2023-05-19T06:54:42.320Z,84.65
2023-05-19T06:57:08.244Z,83.54
2023-05-19T06:59:34.119Z,85.43
2023-05-19T07:02:01.767Z,87.15
2023-05-19T07:04:27.728Z,82.69
2023-05-19T07:06:54.335Z,83.81
2023-05-19T07:09:20.274Z,80.11
2023-05-19T07:11:46.597Z,79.68
2023-05-19T07:14:12.586Z,80.33
2023-05-19T07:16:38.587Z,78.66
2023-05-19T07:19:04.700Z,79.96
2023-05-19T07:21:30.832Z,76.69
2023-05-19T07:23:56.805Z,77.19
2023-05-19T07:26:22.905Z,75.48
2023-05-19T07:28:49.301Z,77.90
2023-05-19T07:31:16.534Z,76.07
2023-05-19T07:33:42.423Z,75.25
2023-05-19T07:36:08.605Z,75.76
2023-05-19T07:38:35.023Z,72.25
2023-05-19T07:41:02.113Z,72.83
2023-05-19T07:43:28.343Z,70.40
2023-05-19T07:45:55.694Z,70.46
2023-05-19T07:48:23.915Z,72.86
2023-05-19T07:50:50.426Z,74.49
2023-05-19T07:53:16.493Z,70.92
2023-05-19T07:55:42.406Z,70.26
2023-05-19T07:58:08.374Z,70.68
2023-05-19T08:00:34.615Z,70.82
2023-05-19T08:03:01.598Z,69.05
2023-05-19T08:05:29.137Z,71.52
2023-05-19T08:07:56.853Z,72.28
2023-05-19T08:10:22.748Z,73.76
2023-05-19T08:12:48.770Z,68.81
2023-05-19T08:15:15.860Z,67.46
2023-05-19T08:17:41.768Z,72.34
2023-05-19T08:20:09.494Z,68.24
2023-05-19T08:22:35.952Z,62.89
2023-05-19T08:25:04.911Z,63.27
2023-05-19T08:27:31.422Z,63.22
2023-05-19T08:29:57.318Z,61.54
2023-05-19T08:32:23.375Z,62.26
2023-05-19T08:34:49.621Z,59.35
2023-05-19T08:37:15.675Z,59.40
2023-05-19T08:39:41.719Z,60.58
2023-05-19T08:42:09.185Z,60.12
2023-05-19T08:44:40.562Z,60.06
2023-05-19T08:47:12.045Z,59.40
2023-05-19T08:49:45.745Z,60.59
2023-05-19T08:52:31.509Z,59.89
2023-05-19T08:55:08.843Z,62.11
2023-05-19T08:57:36.189Z,59.82
2023-05-19T09:00:08.465Z,56.93
2023-05-19T09:02:37.211Z,56.15
2023-05-19T09:05:04.705Z,56.68
2023-05-19T09:07:34.144Z,57.11
2023-05-19T09:10:01.304Z,57.73
2023-05-19T09:12:27.557Z,57.00
2023-05-19T09:14:53.744Z,57.84
2023-05-19T09:17:20.370Z,55.19
2023-05-19T09:19:47.521Z,53.59
2023-05-19T09:22:15.629Z,55.33
2023-05-19T09:24:41.856Z,57.63
2023-05-19T09:27:07.834Z,57.49
2023-05-19T09:29:33.830Z,56.62
2023-05-19T09:32:01.209Z,56.20
2023-05-19T09:34:27.296Z,54.22
2023-05-19T09:36:53.669Z,55.05
2023-05-19T09:39:22.327Z,55.36
2023-05-19T09:41:57.836Z,55.03
2023-05-19T09:44:32.095Z,53.11
2023-05-19T09:46:59.168Z,53.07
2023-05-19T09:49:30.496Z,51.83
2023-05-19T09:51:57.808Z,51.28
2023-05-19T09:54:24.923Z,51.45
2023-05-19T09:57:01.963Z,51.27
2023-05-19T09:59:32.031Z,48.99
2023-05-19T10:02:00.008Z,50.62
2023-05-19T10:04:27.714Z,48.33
2023-05-19T10:06:55.307Z,49.11
2023-05-19T10:09:26.536Z,46.82
2023-05-19T10:11:54.010Z,46.10
2023-05-19T10:14:24.463Z,47.37
2023-05-19T10:16:51.988Z,46.35
2023-05-19T10:19:22.597Z,45.74
2023-05-19T10:21:50.366Z,44.06
2023-05-19T10:24:17.064Z,44.00
2023-05-19T10:26:46.045Z,44.46
2023-05-19T10:29:15.189Z,45.52
2023-05-19T10:31:41.286Z,45.16
2023-05-19T10:34:36.862Z,44.25
2023-05-19T10:37:38.160Z,44.30
2023-05-19T10:40:12.981Z,42.52
2023-05-19T10:43:06.719Z,42.34
2023-05-19T10:45:41.167Z,41.59
2023-05-19T10:48:13.235Z,40.03
2023-05-19T10:50:39.205Z,41.28
2023-05-19T10:53:14.236Z,42.24
2023-05-19T10:55:58.378Z,40.91
2023-05-19T10:58:42.953Z,41.04
2023-05-19T11:01:17.541Z,39.16
2023-05-19T11:04:05.207Z,38.85
2023-05-19T11:06:37.465Z,39.01
2023-05-19T11:09:19.613Z,37.84
2023-05-19T11:11:53.185Z,38.51
2023-05-19T11:14:25.786Z,38.73
2023-05-19T11:17:00.653Z,38.45
2023-05-19T11:19:28.334Z,37.66
2023-05-19T11:21:55.843Z,37.45
2023-05-19T11:24:34.551Z,37.29
2023-05-19T11:27:30.388Z,37.88
2023-05-19T11:30:01.377Z,36.34
2023-05-19T11:32:29.734Z,36.69
2023-05-19T11:34:57.152Z,36.11
2023-05-19T11:37:23.232Z,36.57
2023-05-19T11:39:49.454Z,35.84
2023-05-19T11:42:15.890Z,34.96
2023-05-19T11:44:45.466Z,35.83
2023-05-19T11:47:13.056Z,34.96
2023-05-19T11:49:42.874Z,33.18
2023-05-19T11:52:08.856Z,34.38
2023-05-19T11:54:36.011Z,33.34
2023-05-19T11:57:03.081Z,33.69
2023-05-19T11:59:38.389Z,33.83
2023-05-19T12:02:19.543Z,34.16
2023-05-19T12:04:48.732Z,34.24
2023-05-19T12:07:23.055Z,33.23
2023-05-19T12:09:54.691Z,33.96
2023-05-19T12:12:22.245Z,32.62
2023-05-19T12:14:51.356Z,32.76
2023-05-19T12:17:19.150Z,33.31
2023-05-19T12:19:48.823Z,33.80
2023-05-19T12:22:16.365Z,31.89
2023-05-19T12:24:44.186Z,32.91
2023-05-19T12:27:13.480Z,32.85
2023-05-19T12:29:40.122Z,32.89
2023-05-19T12:32:09.782Z,32.32
2023-05-19T12:34:37.517Z,31.97
2023-05-19T12:37:06.837Z,34.04
2023-05-19T12:39:33.205Z,32.52
2023-05-19T12:42:10.168Z,31.07
2023-05-19T12:44:51.695Z,31.43
2023-05-19T12:47:19.273Z,30.93
2023-05-19T12:49:56.288Z,30.82
2023-05-19T12:52:22.942Z,31.13
2023-05-19T12:54:49.933Z,29.69
2023-05-19T12:57:16.372Z,29.25
2023-05-19T12:59:42.798Z,29.95
2023-05-19T13:02:08.932Z,30.41
2023-05-19T13:04:35.449Z,30.34
2023-05-19T13:07:01.442Z,29.55
2023-05-19T13:09:27.876Z,30.42
2023-05-19T13:11:54.187Z,28.84
2023-05-19T13:14:20.232Z,28.16
2023-05-19T13:16:46.620Z,28.74
2023-05-19T13:19:25.372Z,28.90
2023-05-19T13:21:52.123Z,30.04
2023-05-19T13:24:18.102Z,29.93
2023-05-19T13:26:44.565Z,30.57
2023-05-19T13:29:11.312Z,29.56
2023-05-19T13:31:37.322Z,28.87
2023-05-19T13:34:03.327Z,28.22
2023-05-19T13:36:29.282Z,29.09
2023-05-19T13:38:55.300Z,29.85
2023-05-19T13:41:28.760Z,28.56
2023-05-19T13:44:01.006Z,26.65
2023-05-19T13:46:40.716Z,28.42
2023-05-19T13:49:11.069Z,28.08
2023-05-19T13:51:38.767Z,28.43
2023-05-19T13:54:04.646Z,28.32
2023-05-19T13:56:30.994Z,27.80
2023-05-19T13:58:57.217Z,28.98
2023-05-19T14:01:23.273Z,29.38
2023-05-19T14:03:49.379Z,29.67
2023-05-19T14:06:15.499Z,28.88
2023-05-19T14:08:41.680Z,29.33
2023-05-19T14:11:07.613Z,29.14
2023-05-19T14:13:36.271Z,29.39
2023-05-19T14:16:05.881Z,30.24
2023-05-19T14:18:31.992Z,30.55
2023-05-19T14:20:58.089Z,30.25
2023-05-19T14:23:23.978Z,30.47
2023-05-19T14:25:49.881Z,30.27
2023-05-19T14:28:15.808Z,30.35
2023-05-19T14:30:42.112Z,29.80
2023-05-19T14:33:09.617Z,30.33
2023-05-19T14:35:35.553Z,31.11
2023-05-19T14:38:01.439Z,31.39
2023-05-19T14:40:27.378Z,32.02
2023-05-19T14:42:53.329Z,32.58
2023-05-19T14:45:19.234Z,32.59
2023-05-19T14:47:45.863Z,31.50
2023-05-19T14:50:12.972Z,32.11
2023-05-19T14:52:38.936Z,31.66
2023-05-19T14:55:05.130Z,31.25
2023-05-19T14:57:31.164Z,32.85
2023-05-19T14:59:57.046Z,33.37
2023-05-19T15:02:23.022Z,32.36
2023-05-19T15:04:48.987Z,31.68
2023-05-19T15:07:14.914Z,31.95
2023-05-19T15:09:40.757Z,32.67
2023-05-19T15:12:06.653Z,32.04
2023-05-19T15:14:32.572Z,32.51
2023-05-19T15:16:59.259Z,31.71
2023-05-19T15:19:25.358Z,31.74
2023-05-19T15:21:51.402Z,30.97
2023-05-19T15:24:17.337Z,30.97
2023-05-19T15:26:43.297Z,31.38
2023-05-19T15:29:09.127Z,31.89
2023-05-19T15:31:37.367Z,31.25
2023-05-19T15:34:05.627Z,31.58
2023-05-19T15:36:31.510Z,32.17
2023-05-19T15:38:57.460Z,31.40
2023-05-19T15:41:23.358Z,31.90
2023-05-19T15:43:49.408Z,31.87
2023-05-19T15:46:15.478Z,32.82
2023-05-19T15:48:41.433Z,32.96
2023-05-19T15:51:07.320Z,32.21
2023-05-19T15:53:33.213Z,32.28
2023-05-19T15:55:59.113Z,33.31
2023-05-19T15:58:25.135Z,33.17
2023-05-19T16:00:51.171Z,33.17
2023-05-19T16:03:21.755Z,32.88
2023-05-19T16:05:47.704Z,33.53
2023-05-19T16:08:13.640Z,34.28
2023-05-19T16:10:39.550Z,34.37
2023-05-19T16:13:05.481Z,33.83
2023-05-19T16:15:31.376Z,34.67
2023-05-19T16:17:57.345Z,34.09
2023-05-19T16:20:27.209Z,34.43
2023-05-19T16:22:53.624Z,34.36
2023-05-19T16:25:19.700Z,34.97
2023-05-19T16:27:45.607Z,34.66
2023-05-19T16:30:12.079Z,35.14
2023-05-19T16:32:38.084Z,35.05
2023-05-19T16:35:04.764Z,35.32
2023-05-19T16:37:30.807Z,34.89
2023-05-19T16:39:56.712Z,34.12
2023-05-19T16:42:22.718Z,34.73
2023-05-19T16:44:48.732Z,35.19
2023-05-19T16:47:14.867Z,34.64
2023-05-19T16:49:40.914Z,35.28
2023-05-19T16:52:07.332Z,34.71
2023-05-19T16:54:33.668Z,34.31
2023-05-19T16:56:59.986Z,34.77
2023-05-19T16:59:26.102Z,34.24
2023-05-19T17:01:52.134Z,34.90
2023-05-19T17:04:18.041Z,34.91
2023-05-19T17:06:45.455Z,35.04
2023-05-19T17:09:12.042Z,35.61
2023-05-19T17:11:38.237Z,35.97
2023-05-19T17:14:07.365Z,36.08
2023-05-19T17:16:36.949Z,36.91
2023-05-19T17:19:03.520Z,36.75
2023-05-19T17:21:30.777Z,36.64
2023-05-19T17:23:56.694Z,37.06
2023-05-19T17:26:22.634Z,36.73
2023-05-19T17:28:48.516Z,37.46
2023-05-19T17:31:15.133Z,37.82
2023-05-19T17:33:41.081Z,38.00
2023-05-19T17:36:08.311Z,38.05
2023-05-19T17:38:34.630Z,39.01
2023-05-19T17:41:01.694Z,38.91
2023-05-19T17:43:28.031Z,39.25
2023-05-19T17:45:54.030Z,39.88
2023-05-19T17:48:20.469Z,39.64
2023-05-19T17:50:47.450Z,40.93
2023-05-19T17:53:14.788Z,40.78
2023-05-19T17:55:41.332Z,41.66
2023-05-19T17:58:07.836Z,41.55
2023-05-19T18:00:34.112Z,41.62
2023-05-19T18:03:01.147Z,41.70
2023-05-19T18:05:27.520Z,42.90
2023-05-19T18:07:55.373Z,41.62
2023-05-19T18:10:22.013Z,41.71
2023-05-19T18:12:47.958Z,41.99
2023-05-19T18:15:13.918Z,42.59
2023-05-19T18:17:39.860Z,42.82
2023-05-19T18:20:06.624Z,43.53
2023-05-19T18:22:32.567Z,43.94
2023-05-19T18:24:58.440Z,44.21
2023-05-19T18:27:24.432Z,44.96
2023-05-19T18:29:50.479Z,45.66
2023-05-19T18:32:17.105Z,46.04
2023-05-19T18:34:43.123Z,45.93
2023-05-19T18:37:09.073Z,45.33
2023-05-19T18:39:35.113Z,45.46
2023-05-19T18:42:01.268Z,46.15
2023-05-19T18:44:27.676Z,46.24
2023-05-19T18:46:54.155Z,47.58
2023-05-19T18:49:20.310Z,47.67
2023-05-19T18:51:47.856Z,48.17
2023-05-19T18:54:14.225Z,48.64
2023-05-19T18:56:40.847Z,48.14
2023-05-19T18:59:08.277Z,48.35
2023-05-19T19:01:34.229Z,48.56
2023-05-19T19:04:01.216Z,48.96
2023-05-19T19:06:27.550Z,49.27
2023-05-19T19:08:53.483Z,50.27
2023-05-19T19:11:19.482Z,50.63
2023-05-19T19:13:45.619Z,50.70
2023-05-19T19:16:11.574Z,51.50
2023-05-19T19:18:37.574Z,51.46
2023-05-19T19:21:04.914Z,51.43
2023-05-19T19:23:31.146Z,52.22
2023-05-19T19:25:57.152Z,51.79
2023-05-19T19:28:23.139Z,53.07
2023-05-19T19:30:49.093Z,53.69
2023-05-19T19:33:15.293Z,54.07
2023-05-19T19:35:43.255Z,54.66
2023-05-19T19:38:09.205Z,55.80
2023-05-19T19:40:35.465Z,55.86
2023-05-19T19:43:01.694Z,55.70
2023-05-19T19:45:27.560Z,55.84
2023-05-19T19:47:53.651Z,56.81
2023-05-19T19:50:19.720Z,57.81
2023-05-19T19:52:45.595Z,58.27
2023-05-19T19:55:11.649Z,58.13
2023-05-19T19:57:37.590Z,58.35
2023-05-19T20:00:07.698Z,58.82
2023-05-19T20:02:35.254Z,59.91
2023-05-19T20:05:01.440Z,60.46
2023-05-19T20:07:27.924Z,60.91
2023-05-19T20:09:55.373Z,60.97
2023-05-19T20:12:21.758Z,61.96
2023-05-19T20:14:50.549Z,61.52
2023-05-19T20:17:17.084Z,61.68
2023-05-19T20:19:43.407Z,61.57
2023-05-19T20:22:09.529Z,61.32
2023-05-19T20:24:35.522Z,62.98
2023-05-19T20:27:01.659Z,62.22
2023-05-19T20:29:27.557Z,61.91
2023-05-19T20:31:55.499Z,62.15
2023-05-19T20:34:22.574Z,62.64
2023-05-19T20:36:48.594Z,62.22
2023-05-19T20:39:14.511Z,63.10
2023-05-19T20:41:40.533Z,65.19
2023-05-19T20:44:07.621Z,64.73
2023-05-19T20:46:33.592Z,63.63
2023-05-19T20:48:59.739Z,64.32
2023-05-19T20:51:26.552Z,64.69
2023-05-19T20:53:52.917Z,65.20
2023-05-19T20:56:19.447Z,65.70
2023-05-19T20:58:45.593Z,66.22
2023-05-19T21:01:11.560Z,66.85
2023-05-19T21:03:37.489Z,67.40
2023-05-19T21:06:03.649Z,67.65
2023-05-19T21:08:29.529Z,67.23
2023-05-19T21:10:55.547Z,67.55
2023-05-19T21:13:21.407Z,68.32
2023-05-19T21:15:47.343Z,68.65
2023-05-19T21:18:13.429Z,68.56
2023-05-19T21:20:39.608Z,68.67
2023-05-19T21:23:05.576Z,68.26
2023-05-19T21:25:31.573Z,68.49
2023-05-19T21:28:00.395Z,69.34
2023-05-19T21:30:26.410Z,69.56
2023-05-19T21:32:52.595Z,69.31
2023-05-19T21:35:18.574Z,69.69
2023-05-19T21:37:44.454Z,69.28
2023-05-19T21:40:10.977Z,68.52
2023-05-19T21:42:36.893Z,68.91
2023-05-19T21:45:03.073Z,69.16
2023-05-19T21:47:28.991Z,69.94
2023-05-19T21:49:54.948Z,70.47
2023-05-19T21:52:21.128Z,69.77
2023-05-19T21:54:47.229Z,71.89
2023-05-19T21:57:13.150Z,72.39
2023-05-19T21:59:39.056Z,72.12
2023-05-19T22:02:05.592Z,72.32
2023-05-19T22:04:31.602Z,73.10
2023-05-19T22:07:00.321Z,72.82
2023-05-19T22:09:26.256Z,73.32
2023-05-19T22:11:52.170Z,74.03
2023-05-19T22:14:18.130Z,74.82
2023-05-19T22:16:44.247Z,74.79
2023-05-19T22:19:10.848Z,75.08
2023-05-19T22:21:36.768Z,74.82
2023-05-19T22:24:02.785Z,75.31
2023-05-19T22:26:29.010Z,74.89
2023-05-19T22:28:55.056Z,74.10
2023-05-19T22:31:21.067Z,75.25
2023-05-19T22:33:46.929Z,75.24
2023-05-19T22:36:15.288Z,75.05
2023-05-19T22:38:41.214Z,74.90
2023-05-19T22:41:07.094Z,75.30
2023-05-19T22:43:32.922Z,75.90
2023-05-19T22:45:58.803Z,76.20
2023-05-19T22:48:24.681Z,77.41
2023-05-19T22:50:50.569Z,76.07
2023-05-19T22:53:16.392Z,76.37
2023-05-19T22:55:42.345Z,77.40
2023-05-19T22:58:08.329Z,76.48
2023-05-19T23:00:34.340Z,76.65
2023-05-19T23:03:03.289Z,77.25
2023-05-19T23:05:29.243Z,76.69
2023-05-19T23:07:55.168Z,76.75
2023-05-19T23:10:21.017Z,77.42
2023-05-19T23:12:47.004Z,77.65
2023-05-19T23:15:12.897Z,76.99
2023-05-19T23:17:38.701Z,77.36
2023-05-19T23:20:05.441Z,77.67
2023-05-19T23:22:31.400Z,78.65
2023-05-19T23:24:57.406Z,78.77
2023-05-19T23:27:23.338Z,79.13
2023-05-19T23:29:50.203Z,79.79
2023-05-19T23:32:16.205Z,79.20
2023-05-19T23:34:42.299Z,79.36
2023-05-19T23:37:08.234Z,80.19
2023-05-19T23:39:34.204Z,80.44
2023-05-19T23:42:00.185Z,80.01
2023-05-19T23:44:26.563Z,80.05
2023-05-19T23:46:52.505Z,80.13
2023-05-19T23:49:19.179Z,80.12
2023-05-19T23:51:45.000Z,79.88
2023-05-19T23:54:10.946Z,79.89
2023-05-19T23:56:37.351Z,79.63
2023-05-19T23:59:03.377Z,80.66
